<?xml version="1.0" encoding="UTF-8" standalone="no" ?>
<gpx xmlns="http://www.topografix.com/GPX/1/1" xmlns:xsi="http://www.w3.org/2001/XMLSchema-instance" xsi:schemaLocation="http://www.topografix.com/GPX/1/1 http://www.topografix.com/GPX/1/1/gpx.xsd" version="1.1" creator="VisuGPX - https://www.visugpx.com">
  <metadata>
    <name>Randonnée des Voirloups 2019</name>
    <desc><![CDATA[Randonnée organisée par le Cyclo-Club Othéen en septembre 2019 dans les forêts du pays d'Othe, au départ d'Estissac.]]></desc>
  </metadata>
  <trk>
    <name><![CDATA[2019-09-08 08:24]]></name>
    <trkseg>
      <trkpt lat="48.26773" lon="3.80666">
        <ele>126.77</ele>
        <time>2019-09-08T06:24:20Z</time>
      </trkpt>
      <trkpt lat="48.26773" lon="3.80666">
        <ele>126.77</ele>
        <time>2019-09-08T06:24:20Z</time>
      </trkpt>
      <trkpt lat="48.26676" lon="3.80642">
        <ele>142.33</ele>
        <time>2019-09-08T06:25:51Z</time>
      </trkpt>
      <trkpt lat="48.26656" lon="3.80559">
        <ele>133.5</ele>
        <time>2019-09-08T06:27:45Z</time>
      </trkpt>
      <trkpt lat="48.26656" lon="3.80471">
        <ele>132.2</ele>
        <time>2019-09-08T06:29:15Z</time>
      </trkpt>
      <trkpt lat="48.2665" lon="3.80416">
        <ele>124.59</ele>
        <time>2019-09-08T06:30:14Z</time>
      </trkpt>
      <trkpt lat="48.26653" lon="3.80319">
        <ele>131</ele>
        <time>2019-09-08T06:30:44Z</time>
      </trkpt>
      <trkpt lat="48.26651" lon="3.80207">
        <ele>137.73</ele>
        <time>2019-09-08T06:31:14Z</time>
      </trkpt>
      <trkpt lat="48.26612" lon="3.80137">
        <ele>140.96</ele>
        <time>2019-09-08T06:32:13Z</time>
      </trkpt>
      <trkpt lat="48.26601" lon="3.80099">
        <ele>137.61</ele>
        <time>2019-09-08T06:32:43Z</time>
      </trkpt>
      <trkpt lat="48.26564" lon="3.80057">
        <ele>133.74</ele>
        <time>2019-09-08T06:33:44Z</time>
      </trkpt>
      <trkpt lat="48.26519" lon="3.79953">
        <ele>141.77</ele>
        <time>2019-09-08T06:35:13Z</time>
      </trkpt>
      <trkpt lat="48.26492" lon="3.79874">
        <ele>146.57</ele>
        <time>2019-09-08T06:36:15Z</time>
      </trkpt>
      <trkpt lat="48.26451" lon="3.79814">
        <ele>135.53</ele>
        <time>2019-09-08T06:37:14Z</time>
      </trkpt>
      <trkpt lat="48.26402" lon="3.7975">
        <ele>128.8</ele>
        <time>2019-09-08T06:37:44Z</time>
      </trkpt>
      <trkpt lat="48.26374" lon="3.79675">
        <ele>145.52</ele>
        <time>2019-09-08T06:39:13Z</time>
      </trkpt>
      <trkpt lat="48.2633" lon="3.79564">
        <ele>142.08</ele>
        <time>2019-09-08T06:42:12Z</time>
      </trkpt>
      <trkpt lat="48.26309" lon="3.79477">
        <ele>128.24</ele>
        <time>2019-09-08T06:43:13Z</time>
      </trkpt>
      <trkpt lat="48.2628" lon="3.79419">
        <ele>133.47</ele>
        <time>2019-09-08T06:45:43Z</time>
      </trkpt>
      <trkpt lat="48.26239" lon="3.79268">
        <ele>124.48</ele>
        <time>2019-09-08T06:46:43Z</time>
      </trkpt>
      <trkpt lat="48.26176" lon="3.7929">
        <ele>127.7</ele>
        <time>2019-09-08T06:49:43Z</time>
      </trkpt>
      <trkpt lat="48.26123" lon="3.79326">
        <ele>127.7</ele>
        <time>2019-09-08T06:50:13Z</time>
      </trkpt>
      <trkpt lat="48.26024" lon="3.79376">
        <ele>134.95</ele>
        <time>2019-09-08T06:51:15Z</time>
      </trkpt>
      <trkpt lat="48.25955" lon="3.79408">
        <ele>130.62</ele>
        <time>2019-09-08T06:52:45Z</time>
      </trkpt>
      <trkpt lat="48.25867" lon="3.79442">
        <ele>134.8</ele>
        <time>2019-09-08T06:53:44Z</time>
      </trkpt>
      <trkpt lat="48.25773" lon="3.79481">
        <ele>138.81</ele>
        <time>2019-09-08T06:54:46Z</time>
      </trkpt>
      <trkpt lat="48.25704" lon="3.7952">
        <ele>151.1</ele>
        <time>2019-09-08T06:55:45Z</time>
      </trkpt>
      <trkpt lat="48.25613" lon="3.79546">
        <ele>164.2</ele>
        <time>2019-09-08T06:56:15Z</time>
      </trkpt>
      <trkpt lat="48.25536" lon="3.79569">
        <ele>176.58</ele>
        <time>2019-09-08T06:57:44Z</time>
      </trkpt>
      <trkpt lat="48.25486" lon="3.79582">
        <ele>171.14</ele>
        <time>2019-09-08T06:58:17Z</time>
      </trkpt>
      <trkpt lat="48.25446" lon="3.79581">
        <ele>178.95</ele>
        <time>2019-09-08T07:02:16Z</time>
      </trkpt>
      <trkpt lat="48.25343" lon="3.7956">
        <ele>226.62</ele>
        <time>2019-09-08T07:11:15Z</time>
      </trkpt>
      <trkpt lat="48.25282" lon="3.79553">
        <ele>216.34</ele>
        <time>2019-09-08T07:12:14Z</time>
      </trkpt>
      <trkpt lat="48.252" lon="3.79541">
        <ele>219.96</ele>
        <time>2019-09-08T07:14:43Z</time>
      </trkpt>
      <trkpt lat="48.25109" lon="3.79547">
        <ele>220.61</ele>
        <time>2019-09-08T07:15:15Z</time>
      </trkpt>
      <trkpt lat="48.25059" lon="3.79525">
        <ele>225.54</ele>
        <time>2019-09-08T07:16:14Z</time>
      </trkpt>
      <trkpt lat="48.25021" lon="3.79586">
        <ele>165.44</ele>
        <time>2019-09-08T07:16:46Z</time>
      </trkpt>
      <trkpt lat="48.24983" lon="3.79563">
        <ele>229.71</ele>
        <time>2019-09-08T07:17:44Z</time>
      </trkpt>
      <trkpt lat="48.24939" lon="3.79454">
        <ele>230.5</ele>
        <time>2019-09-08T07:18:45Z</time>
      </trkpt>
      <trkpt lat="48.24912" lon="3.79338">
        <ele>230.2</ele>
        <time>2019-09-08T07:19:51Z</time>
      </trkpt>
      <trkpt lat="48.24904" lon="3.79242">
        <ele>231.9</ele>
        <time>2019-09-08T07:20:21Z</time>
      </trkpt>
      <trkpt lat="48.24896" lon="3.7912">
        <ele>226.04</ele>
        <time>2019-09-08T07:21:22Z</time>
      </trkpt>
      <trkpt lat="48.24885" lon="3.78993">
        <ele>224.9</ele>
        <time>2019-09-08T07:23:51Z</time>
      </trkpt>
      <trkpt lat="48.24987" lon="3.78973">
        <ele>225</ele>
        <time>2019-09-08T07:24:23Z</time>
      </trkpt>
      <trkpt lat="48.25061" lon="3.78957">
        <ele>222.6</ele>
        <time>2019-09-08T07:25:24Z</time>
      </trkpt>
      <trkpt lat="48.25137" lon="3.78952">
        <ele>218.05</ele>
        <time>2019-09-08T07:26:22Z</time>
      </trkpt>
      <trkpt lat="48.25176" lon="3.78944">
        <ele>219.43</ele>
        <time>2019-09-08T07:27:21Z</time>
      </trkpt>
      <trkpt lat="48.25235" lon="3.78917">
        <ele>201.7</ele>
        <time>2019-09-08T07:27:51Z</time>
      </trkpt>
      <trkpt lat="48.25168" lon="3.78751">
        <ele>211.16</ele>
        <time>2019-09-08T07:28:24Z</time>
      </trkpt>
      <trkpt lat="48.25129" lon="3.78668">
        <ele>224.45</ele>
        <time>2019-09-08T07:29:22Z</time>
      </trkpt>
      <trkpt lat="48.25104" lon="3.78599">
        <ele>201.51</ele>
        <time>2019-09-08T07:30:06Z</time>
      </trkpt>
      <trkpt lat="48.25075" lon="3.78547">
        <ele>195.32</ele>
        <time>2019-09-08T07:30:37Z</time>
      </trkpt>
      <trkpt lat="48.25034" lon="3.78448">
        <ele>205.28</ele>
        <time>2019-09-08T07:31:07Z</time>
      </trkpt>
      <trkpt lat="48.24991" lon="3.78352">
        <ele>206.39</ele>
        <time>2019-09-08T07:31:38Z</time>
      </trkpt>
      <trkpt lat="48.24918" lon="3.78377">
        <ele>212.04</ele>
        <time>2019-09-08T07:32:37Z</time>
      </trkpt>
      <trkpt lat="48.24881" lon="3.78384">
        <ele>219.03</ele>
        <time>2019-09-08T07:33:07Z</time>
      </trkpt>
      <trkpt lat="48.24832" lon="3.7842">
        <ele>226.62</ele>
        <time>2019-09-08T07:33:37Z</time>
      </trkpt>
      <trkpt lat="48.24756" lon="3.78563">
        <ele>234.26</ele>
        <time>2019-09-08T07:35:07Z</time>
      </trkpt>
      <trkpt lat="48.24733" lon="3.78613">
        <ele>228.27</ele>
        <time>2019-09-08T07:35:39Z</time>
      </trkpt>
      <trkpt lat="48.24677" lon="3.78661">
        <ele>211.87</ele>
        <time>2019-09-08T07:36:37Z</time>
      </trkpt>
      <trkpt lat="48.24629" lon="3.78702">
        <ele>181.39</ele>
        <time>2019-09-08T07:37:38Z</time>
      </trkpt>
      <trkpt lat="48.24578" lon="3.7872">
        <ele>191.3</ele>
        <time>2019-09-08T07:38:36Z</time>
      </trkpt>
      <trkpt lat="48.24545" lon="3.78715">
        <ele>198.08</ele>
        <time>2019-09-08T07:41:06Z</time>
      </trkpt>
      <trkpt lat="48.24498" lon="3.78703">
        <ele>193.03</ele>
        <time>2019-09-08T07:41:36Z</time>
      </trkpt>
      <trkpt lat="48.24482" lon="3.78646">
        <ele>178.43</ele>
        <time>2019-09-08T07:43:07Z</time>
      </trkpt>
      <trkpt lat="48.24468" lon="3.78581">
        <ele>170.7</ele>
        <time>2019-09-08T07:44:07Z</time>
      </trkpt>
      <trkpt lat="48.24459" lon="3.7851">
        <ele>174.76</ele>
        <time>2019-09-08T07:45:07Z</time>
      </trkpt>
      <trkpt lat="48.24472" lon="3.7842">
        <ele>180.37</ele>
        <time>2019-09-08T07:46:06Z</time>
      </trkpt>
      <trkpt lat="48.24467" lon="3.78375">
        <ele>176.69</ele>
        <time>2019-09-08T07:47:06Z</time>
      </trkpt>
      <trkpt lat="48.24453" lon="3.78286">
        <ele>163.16</ele>
        <time>2019-09-08T07:48:07Z</time>
      </trkpt>
      <trkpt lat="48.24455" lon="3.78207">
        <ele>162.05</ele>
        <time>2019-09-08T07:49:37Z</time>
      </trkpt>
      <trkpt lat="48.24449" lon="3.78161">
        <ele>154.63</ele>
        <time>2019-09-08T07:58:36Z</time>
      </trkpt>
      <trkpt lat="48.24443" lon="3.781">
        <ele>148.4</ele>
        <time>2019-09-08T08:00:06Z</time>
      </trkpt>
      <trkpt lat="48.24375" lon="3.78095">
        <ele>139.73</ele>
        <time>2019-09-08T08:00:37Z</time>
      </trkpt>
      <trkpt lat="48.24334" lon="3.78116">
        <ele>105.36</ele>
        <time>2019-09-08T08:02:08Z</time>
      </trkpt>
      <trkpt lat="48.24248" lon="3.78103">
        <ele>149.69</ele>
        <time>2019-09-08T08:04:07Z</time>
      </trkpt>
      <trkpt lat="48.24174" lon="3.78111">
        <ele>150.56</ele>
        <time>2019-09-08T08:06:38Z</time>
      </trkpt>
      <trkpt lat="48.24107" lon="3.78148">
        <ele>154.73</ele>
        <time>2019-09-08T08:07:36Z</time>
      </trkpt>
      <trkpt lat="48.24022" lon="3.78172">
        <ele>161</ele>
        <time>2019-09-08T08:08:21Z</time>
      </trkpt>
      <trkpt lat="48.23971" lon="3.78213">
        <ele>160.3</ele>
        <time>2019-09-08T08:08:52Z</time>
      </trkpt>
      <trkpt lat="48.23929" lon="3.78255">
        <ele>145.65</ele>
        <time>2019-09-08T08:09:51Z</time>
      </trkpt>
      <trkpt lat="48.23884" lon="3.7826">
        <ele>168.15</ele>
        <time>2019-09-08T08:10:22Z</time>
      </trkpt>
      <trkpt lat="48.2383" lon="3.78309">
        <ele>162.1</ele>
        <time>2019-09-08T08:12:22Z</time>
      </trkpt>
      <trkpt lat="48.23788" lon="3.78314">
        <ele>153.39</ele>
        <time>2019-09-08T08:13:22Z</time>
      </trkpt>
      <trkpt lat="48.23739" lon="3.78327">
        <ele>161.7</ele>
        <time>2019-09-08T08:14:52Z</time>
      </trkpt>
      <trkpt lat="48.23667" lon="3.7837">
        <ele>168.16</ele>
        <time>2019-09-08T08:15:22Z</time>
      </trkpt>
      <trkpt lat="48.23613" lon="3.7844">
        <ele>146.25</ele>
        <time>2019-09-08T08:16:52Z</time>
      </trkpt>
      <trkpt lat="48.23553" lon="3.78533">
        <ele>157.87</ele>
        <time>2019-09-08T08:18:22Z</time>
      </trkpt>
      <trkpt lat="48.23495" lon="3.78606">
        <ele>162.26</ele>
        <time>2019-09-08T08:20:22Z</time>
      </trkpt>
      <trkpt lat="48.23396" lon="3.78691">
        <ele>168.56</ele>
        <time>2019-09-08T08:20:52Z</time>
      </trkpt>
      <trkpt lat="48.23357" lon="3.78732">
        <ele>161.01</ele>
        <time>2019-09-08T08:21:22Z</time>
      </trkpt>
      <trkpt lat="48.23362" lon="3.78836">
        <ele>166.22</ele>
        <time>2019-09-08T08:21:52Z</time>
      </trkpt>
      <trkpt lat="48.23383" lon="3.78897">
        <ele>158.66</ele>
        <time>2019-09-08T08:22:22Z</time>
      </trkpt>
      <trkpt lat="48.23413" lon="3.78977">
        <ele>233.49</ele>
        <time>2019-09-08T08:25:52Z</time>
      </trkpt>
      <trkpt lat="48.2351" lon="3.78906">
        <ele>210.89</ele>
        <time>2019-09-08T08:26:22Z</time>
      </trkpt>
      <trkpt lat="48.23565" lon="3.78849">
        <ele>207.1</ele>
        <time>2019-09-08T08:26:52Z</time>
      </trkpt>
      <trkpt lat="48.23613" lon="3.78829">
        <ele>208.6</ele>
        <time>2019-09-08T08:27:22Z</time>
      </trkpt>
      <trkpt lat="48.23643" lon="3.78791">
        <ele>170.95</ele>
        <time>2019-09-08T08:27:52Z</time>
      </trkpt>
      <trkpt lat="48.23692" lon="3.78757">
        <ele>225.21</ele>
        <time>2019-09-08T08:28:22Z</time>
      </trkpt>
      <trkpt lat="48.23716" lon="3.78701">
        <ele>185.66</ele>
        <time>2019-09-08T08:29:52Z</time>
      </trkpt>
      <trkpt lat="48.23744" lon="3.78657">
        <ele>196.15</ele>
        <time>2019-09-08T08:30:22Z</time>
      </trkpt>
      <trkpt lat="48.23805" lon="3.78607">
        <ele>200.65</ele>
        <time>2019-09-08T08:30:52Z</time>
      </trkpt>
      <trkpt lat="48.23849" lon="3.78581">
        <ele>193.55</ele>
        <time>2019-09-08T08:31:22Z</time>
      </trkpt>
      <trkpt lat="48.2391" lon="3.78584">
        <ele>206.86</ele>
        <time>2019-09-08T08:31:52Z</time>
      </trkpt>
      <trkpt lat="48.23967" lon="3.78552">
        <ele>206.14</ele>
        <time>2019-09-08T08:32:22Z</time>
      </trkpt>
      <trkpt lat="48.24028" lon="3.78502">
        <ele>204.24</ele>
        <time>2019-09-08T08:33:22Z</time>
      </trkpt>
      <trkpt lat="48.24057" lon="3.78501">
        <ele>205.47</ele>
        <time>2019-09-08T08:42:36Z</time>
      </trkpt>
      <trkpt lat="48.24067" lon="3.78624">
        <ele>208.84</ele>
        <time>2019-09-08T08:43:36Z</time>
      </trkpt>
      <trkpt lat="48.2407" lon="3.78725">
        <ele>228</ele>
        <time>2019-09-08T08:44:35Z</time>
      </trkpt>
      <trkpt lat="48.24074" lon="3.78794">
        <ele>217.7</ele>
        <time>2019-09-08T08:46:35Z</time>
      </trkpt>
      <trkpt lat="48.24078" lon="3.78885">
        <ele>233.3</ele>
        <time>2019-09-08T08:47:34Z</time>
      </trkpt>
      <trkpt lat="48.24088" lon="3.79005">
        <ele>226.52</ele>
        <time>2019-09-08T08:49:35Z</time>
      </trkpt>
      <trkpt lat="48.2409" lon="3.7906">
        <ele>222.72</ele>
        <time>2019-09-08T08:51:04Z</time>
      </trkpt>
      <trkpt lat="48.24095" lon="3.79124">
        <ele>224.36</ele>
        <time>2019-09-08T08:51:34Z</time>
      </trkpt>
      <trkpt lat="48.24093" lon="3.79187">
        <ele>228.69</ele>
        <time>2019-09-08T08:52:05Z</time>
      </trkpt>
      <trkpt lat="48.24097" lon="3.79245">
        <ele>226.36</ele>
        <time>2019-09-08T08:53:35Z</time>
      </trkpt>
      <trkpt lat="48.24096" lon="3.79322">
        <ele>232.6</ele>
        <time>2019-09-08T08:54:35Z</time>
      </trkpt>
      <trkpt lat="48.24088" lon="3.7941">
        <ele>230.5</ele>
        <time>2019-09-08T08:56:05Z</time>
      </trkpt>
      <trkpt lat="48.2408" lon="3.79474">
        <ele>225.6</ele>
        <time>2019-09-08T08:57:34Z</time>
      </trkpt>
      <trkpt lat="48.24152" lon="3.79494">
        <ele>227.66</ele>
        <time>2019-09-08T08:58:05Z</time>
      </trkpt>
      <trkpt lat="48.24196" lon="3.79495">
        <ele>222.15</ele>
        <time>2019-09-08T09:02:34Z</time>
      </trkpt>
      <trkpt lat="48.24238" lon="3.795">
        <ele>223.45</ele>
        <time>2019-09-08T09:03:04Z</time>
      </trkpt>
      <trkpt lat="48.24279" lon="3.79496">
        <ele>226.11</ele>
        <time>2019-09-08T09:03:34Z</time>
      </trkpt>
      <trkpt lat="48.24318" lon="3.79505">
        <ele>227.44</ele>
        <time>2019-09-08T09:04:06Z</time>
      </trkpt>
      <trkpt lat="48.24356" lon="3.79509">
        <ele>226.91</ele>
        <time>2019-09-08T09:05:04Z</time>
      </trkpt>
      <trkpt lat="48.24415" lon="3.79516">
        <ele>222.6</ele>
        <time>2019-09-08T09:07:04Z</time>
      </trkpt>
      <trkpt lat="48.24411" lon="3.796">
        <ele>221.72</ele>
        <time>2019-09-08T09:07:34Z</time>
      </trkpt>
      <trkpt lat="48.2441" lon="3.79653">
        <ele>223.36</ele>
        <time>2019-09-08T09:08:04Z</time>
      </trkpt>
      <trkpt lat="48.24408" lon="3.79723">
        <ele>227.69</ele>
        <time>2019-09-08T09:08:34Z</time>
      </trkpt>
      <trkpt lat="48.24405" lon="3.79785">
        <ele>224.56</ele>
        <time>2019-09-08T09:09:34Z</time>
      </trkpt>
      <trkpt lat="48.24404" lon="3.79841">
        <ele>222.33</ele>
        <time>2019-09-08T09:10:04Z</time>
      </trkpt>
      <trkpt lat="48.24397" lon="3.79912">
        <ele>217.89</ele>
        <time>2019-09-08T09:10:34Z</time>
      </trkpt>
      <trkpt lat="48.24396" lon="3.80013">
        <ele>208.98</ele>
        <time>2019-09-08T09:11:04Z</time>
      </trkpt>
      <trkpt lat="48.24233" lon="3.80006">
        <ele>200.8</ele>
        <time>2019-09-08T09:11:34Z</time>
      </trkpt>
      <trkpt lat="48.24159" lon="3.80006">
        <ele>194.1</ele>
        <time>2019-09-08T09:12:34Z</time>
      </trkpt>
      <trkpt lat="48.24116" lon="3.80021">
        <ele>181.16</ele>
        <time>2019-09-08T09:13:04Z</time>
      </trkpt>
      <trkpt lat="48.24167" lon="3.80085">
        <ele>173.91</ele>
        <time>2019-09-08T09:13:34Z</time>
      </trkpt>
      <trkpt lat="48.24226" lon="3.80191">
        <ele>204.2</ele>
        <time>2019-09-08T09:14:04Z</time>
      </trkpt>
      <trkpt lat="48.24166" lon="3.80306">
        <ele>159.04</ele>
        <time>2019-09-08T09:14:34Z</time>
      </trkpt>
      <trkpt lat="48.24104" lon="3.80381">
        <ele>178.03</ele>
        <time>2019-09-08T09:15:04Z</time>
      </trkpt>
      <trkpt lat="48.24059" lon="3.8046">
        <ele>184.81</ele>
        <time>2019-09-08T09:15:34Z</time>
      </trkpt>
      <trkpt lat="48.23984" lon="3.80455">
        <ele>219.34</ele>
        <time>2019-09-08T09:16:04Z</time>
      </trkpt>
      <trkpt lat="48.23943" lon="3.80475">
        <ele>190.09</ele>
        <time>2019-09-08T09:16:34Z</time>
      </trkpt>
      <trkpt lat="48.23914" lon="3.80483">
        <ele>213.84</ele>
        <time>2019-09-08T09:17:04Z</time>
      </trkpt>
      <trkpt lat="48.23876" lon="3.80515">
        <ele>223.54</ele>
        <time>2019-09-08T09:17:34Z</time>
      </trkpt>
      <trkpt lat="48.23867" lon="3.80597">
        <ele>206.32</ele>
        <time>2019-09-08T09:18:04Z</time>
      </trkpt>
      <trkpt lat="48.2387" lon="3.80655">
        <ele>216.8</ele>
        <time>2019-09-08T09:18:34Z</time>
      </trkpt>
      <trkpt lat="48.23883" lon="3.80759">
        <ele>238.44</ele>
        <time>2019-09-08T09:19:34Z</time>
      </trkpt>
      <trkpt lat="48.23888" lon="3.80889">
        <ele>237.96</ele>
        <time>2019-09-08T09:20:04Z</time>
      </trkpt>
      <trkpt lat="48.23898" lon="3.80954">
        <ele>233.81</ele>
        <time>2019-09-08T09:20:34Z</time>
      </trkpt>
      <trkpt lat="48.23904" lon="3.81063">
        <ele>226.7</ele>
        <time>2019-09-08T09:23:04Z</time>
      </trkpt>
      <trkpt lat="48.2395" lon="3.81071">
        <ele>223.3</ele>
        <time>2019-09-08T09:23:34Z</time>
      </trkpt>
      <trkpt lat="48.23965" lon="3.81162">
        <ele>232.92</ele>
        <time>2019-09-08T09:24:34Z</time>
      </trkpt>
      <trkpt lat="48.23977" lon="3.81215">
        <ele>232.8</ele>
        <time>2019-09-08T09:28:34Z</time>
      </trkpt>
      <trkpt lat="48.24007" lon="3.81244">
        <ele>232.78</ele>
        <time>2019-09-08T09:29:04Z</time>
      </trkpt>
      <trkpt lat="48.24059" lon="3.8128">
        <ele>238.38</ele>
        <time>2019-09-08T09:29:34Z</time>
      </trkpt>
      <trkpt lat="48.24131" lon="3.81326">
        <ele>223.49</ele>
        <time>2019-09-08T09:30:04Z</time>
      </trkpt>
      <trkpt lat="48.24187" lon="3.81376">
        <ele>217.3</ele>
        <time>2019-09-08T09:30:34Z</time>
      </trkpt>
      <trkpt lat="48.24222" lon="3.81404">
        <ele>216</ele>
        <time>2019-09-08T09:31:04Z</time>
      </trkpt>
      <trkpt lat="48.24263" lon="3.81434">
        <ele>217.81</ele>
        <time>2019-09-08T09:31:34Z</time>
      </trkpt>
      <trkpt lat="48.24294" lon="3.81464">
        <ele>209.78</ele>
        <time>2019-09-08T09:32:04Z</time>
      </trkpt>
      <trkpt lat="48.24325" lon="3.81501">
        <ele>204.18</ele>
        <time>2019-09-08T09:32:34Z</time>
      </trkpt>
      <trkpt lat="48.2436" lon="3.81532">
        <ele>203.05</ele>
        <time>2019-09-08T09:33:04Z</time>
      </trkpt>
      <trkpt lat="48.24406" lon="3.81549">
        <ele>207.11</ele>
        <time>2019-09-08T09:33:34Z</time>
      </trkpt>
      <trkpt lat="48.24437" lon="3.81559">
        <ele>204.44</ele>
        <time>2019-09-08T09:34:04Z</time>
      </trkpt>
      <trkpt lat="48.2447" lon="3.81572">
        <ele>198.31</ele>
        <time>2019-09-08T09:34:34Z</time>
      </trkpt>
      <trkpt lat="48.24508" lon="3.81585">
        <ele>195.48</ele>
        <time>2019-09-08T09:35:04Z</time>
      </trkpt>
      <trkpt lat="48.24535" lon="3.81595">
        <ele>194.12</ele>
        <time>2019-09-08T09:35:34Z</time>
      </trkpt>
      <trkpt lat="48.24578" lon="3.81613">
        <ele>186.59</ele>
        <time>2019-09-08T09:36:04Z</time>
      </trkpt>
      <trkpt lat="48.24615" lon="3.81634">
        <ele>184.34</ele>
        <time>2019-09-08T09:36:34Z</time>
      </trkpt>
      <trkpt lat="48.24653" lon="3.81661">
        <ele>181.49</ele>
        <time>2019-09-08T09:37:04Z</time>
      </trkpt>
      <trkpt lat="48.24695" lon="3.81689">
        <ele>177.72</ele>
        <time>2019-09-08T09:37:34Z</time>
      </trkpt>
      <trkpt lat="48.24739" lon="3.81715">
        <ele>178.56</ele>
        <time>2019-09-08T09:38:04Z</time>
      </trkpt>
      <trkpt lat="48.24779" lon="3.8174">
        <ele>177.13</ele>
        <time>2019-09-08T09:38:34Z</time>
      </trkpt>
      <trkpt lat="48.24823" lon="3.81761">
        <ele>184.05</ele>
        <time>2019-09-08T09:39:04Z</time>
      </trkpt>
      <trkpt lat="48.24854" lon="3.81785">
        <ele>175.03</ele>
        <time>2019-09-08T09:39:34Z</time>
      </trkpt>
      <trkpt lat="48.24892" lon="3.81812">
        <ele>168.42</ele>
        <time>2019-09-08T09:40:04Z</time>
      </trkpt>
      <trkpt lat="48.24937" lon="3.81823">
        <ele>160.7</ele>
        <time>2019-09-08T09:40:34Z</time>
      </trkpt>
      <trkpt lat="48.24977" lon="3.81835">
        <ele>162.36</ele>
        <time>2019-09-08T09:41:04Z</time>
      </trkpt>
      <trkpt lat="48.25021" lon="3.81833">
        <ele>160.29</ele>
        <time>2019-09-08T09:41:34Z</time>
      </trkpt>
      <trkpt lat="48.25064" lon="3.81824">
        <ele>158.28</ele>
        <time>2019-09-08T09:42:04Z</time>
      </trkpt>
      <trkpt lat="48.25081" lon="3.81871">
        <ele>150.59</ele>
        <time>2019-09-08T09:42:34Z</time>
      </trkpt>
      <trkpt lat="48.25094" lon="3.81933">
        <ele>150.74</ele>
        <time>2019-09-08T09:43:04Z</time>
      </trkpt>
      <trkpt lat="48.25102" lon="3.81985">
        <ele>148.37</ele>
        <time>2019-09-08T09:43:34Z</time>
      </trkpt>
      <trkpt lat="48.25059" lon="3.82041">
        <ele>146.27</ele>
        <time>2019-09-08T09:44:04Z</time>
      </trkpt>
      <trkpt lat="48.25049" lon="3.82089">
        <ele>143.47</ele>
        <time>2019-09-08T09:44:34Z</time>
      </trkpt>
      <trkpt lat="48.25067" lon="3.82162">
        <ele>138.8</ele>
        <time>2019-09-08T09:45:04Z</time>
      </trkpt>
      <trkpt lat="48.25091" lon="3.82289">
        <ele>138</ele>
        <time>2019-09-08T09:45:34Z</time>
      </trkpt>
      <trkpt lat="48.25115" lon="3.82385">
        <ele>138.3</ele>
        <time>2019-09-08T09:46:04Z</time>
      </trkpt>
      <trkpt lat="48.25136" lon="3.82481">
        <ele>140.1</ele>
        <time>2019-09-08T09:46:34Z</time>
      </trkpt>
      <trkpt lat="48.25191" lon="3.82458">
        <ele>144.38</ele>
        <time>2019-09-08T09:47:04Z</time>
      </trkpt>
      <trkpt lat="48.25227" lon="3.82432">
        <ele>141.49</ele>
        <time>2019-09-08T09:47:34Z</time>
      </trkpt>
      <trkpt lat="48.25267" lon="3.82411">
        <ele>140.92</ele>
        <time>2019-09-08T09:48:04Z</time>
      </trkpt>
      <trkpt lat="48.25299" lon="3.8239">
        <ele>137.6</ele>
        <time>2019-09-08T09:48:34Z</time>
      </trkpt>
      <trkpt lat="48.25318" lon="3.82378">
        <ele>141.74</ele>
        <time>2019-09-08T09:49:04Z</time>
      </trkpt>
      <trkpt lat="48.25355" lon="3.8237">
        <ele>145.77</ele>
        <time>2019-09-08T09:49:34Z</time>
      </trkpt>
      <trkpt lat="48.25396" lon="3.82345">
        <ele>141.77</ele>
        <time>2019-09-08T09:50:04Z</time>
      </trkpt>
      <trkpt lat="48.25437" lon="3.82337">
        <ele>136.17</ele>
        <time>2019-09-08T09:50:34Z</time>
      </trkpt>
      <trkpt lat="48.2548" lon="3.82344">
        <ele>134.25</ele>
        <time>2019-09-08T09:51:04Z</time>
      </trkpt>
      <trkpt lat="48.25524" lon="3.82338">
        <ele>138.67</ele>
        <time>2019-09-08T09:51:34Z</time>
      </trkpt>
      <trkpt lat="48.25562" lon="3.82325">
        <ele>137.15</ele>
        <time>2019-09-08T09:52:04Z</time>
      </trkpt>
      <trkpt lat="48.25605" lon="3.82309">
        <ele>135.25</ele>
        <time>2019-09-08T09:52:34Z</time>
      </trkpt>
      <trkpt lat="48.25645" lon="3.82295">
        <ele>134.87</ele>
        <time>2019-09-08T09:53:04Z</time>
      </trkpt>
      <trkpt lat="48.25665" lon="3.82282">
        <ele>135.59</ele>
        <time>2019-09-08T09:53:34Z</time>
      </trkpt>
      <trkpt lat="48.25702" lon="3.82251">
        <ele>135.74</ele>
        <time>2019-09-08T09:54:34Z</time>
      </trkpt>
      <trkpt lat="48.2574" lon="3.82218">
        <ele>136.57</ele>
        <time>2019-09-08T09:55:34Z</time>
      </trkpt>
      <trkpt lat="48.25775" lon="3.82186">
        <ele>136.73</ele>
        <time>2019-09-08T09:58:03Z</time>
      </trkpt>
      <trkpt lat="48.25811" lon="3.82142">
        <ele>136.77</ele>
        <time>2019-09-08T09:59:46Z</time>
      </trkpt>
      <trkpt lat="48.25832" lon="3.82103">
        <ele>139.17</ele>
        <time>2019-09-08T10:02:12Z</time>
      </trkpt>
      <trkpt lat="48.25871" lon="3.82054">
        <ele>138.05</ele>
        <time>2019-09-08T10:02:12Z</time>
      </trkpt>
      <trkpt lat="48.259" lon="3.82003">
        <ele>135.43</ele>
      </trkpt>
      <trkpt lat="48.25937" lon="3.81956">
        <ele>135.71</ele>
      </trkpt>
      <trkpt lat="48.25967" lon="3.81911">
        <ele>136.56</ele>
      </trkpt>
      <trkpt lat="48.26" lon="3.81867">
        <ele>138.33</ele>
      </trkpt>
      <trkpt lat="48.2604" lon="3.81823">
        <ele>136.29</ele>
      </trkpt>
      <trkpt lat="48.26075" lon="3.81785">
        <ele>132.68</ele>
      </trkpt>
      <trkpt lat="48.26116" lon="3.81748">
        <ele>133.55</ele>
      </trkpt>
      <trkpt lat="48.26159" lon="3.81718">
        <ele>135.33</ele>
      </trkpt>
      <trkpt lat="48.26202" lon="3.81689">
        <ele>134.89</ele>
      </trkpt>
      <trkpt lat="48.26245" lon="3.81671">
        <ele>135.6</ele>
      </trkpt>
      <trkpt lat="48.26274" lon="3.81645">
        <ele>134.14</ele>
      </trkpt>
      <trkpt lat="48.26313" lon="3.81602">
        <ele>134.65</ele>
      </trkpt>
      <trkpt lat="48.26354" lon="3.8157">
        <ele>133.95</ele>
      </trkpt>
      <trkpt lat="48.26396" lon="3.81538">
        <ele>137.01</ele>
      </trkpt>
      <trkpt lat="48.26433" lon="3.81506">
        <ele>138.42</ele>
      </trkpt>
      <trkpt lat="48.26478" lon="3.81471">
        <ele>139.5</ele>
      </trkpt>
      <trkpt lat="48.26517" lon="3.81434">
        <ele>137.32</ele>
      </trkpt>
      <trkpt lat="48.26554" lon="3.81404">
        <ele>134.48</ele>
      </trkpt>
      <trkpt lat="48.26599" lon="3.81379">
        <ele>137.92</ele>
      </trkpt>
      <trkpt lat="48.26644" lon="3.81359">
        <ele>140.2</ele>
      </trkpt>
      <trkpt lat="48.26668" lon="3.81309">
        <ele>135.86</ele>
      </trkpt>
      <trkpt lat="48.26683" lon="3.81248">
        <ele>132.59</ele>
      </trkpt>
      <trkpt lat="48.26694" lon="3.81177">
        <ele>126.34</ele>
      </trkpt>
      <trkpt lat="48.26679" lon="3.81115">
        <ele>124.29</ele>
      </trkpt>
      <trkpt lat="48.26672" lon="3.81039">
        <ele>127.08</ele>
      </trkpt>
      <trkpt lat="48.26667" lon="3.80984">
        <ele>125.23</ele>
      </trkpt>
      <trkpt lat="48.26663" lon="3.80919">
        <ele>130.47</ele>
      </trkpt>
      <trkpt lat="48.26665" lon="3.80865">
        <ele>128.31</ele>
      </trkpt>
      <trkpt lat="48.26668" lon="3.80792">
        <ele>132.68</ele>
      </trkpt>
      <trkpt lat="48.26664" lon="3.80729">
        <ele>133.56</ele>
      </trkpt>
      <trkpt lat="48.26694" lon="3.80696">
        <ele>132.13</ele>
      </trkpt>
      <trkpt lat="48.26736" lon="3.80675">
        <ele>132.9</ele>
      </trkpt>
      <trkpt lat="48.26774" lon="3.80669">
        <ele>133.55</ele>
      </trkpt>
      <trkpt lat="48.26774" lon="3.80659">
        <ele>118.88</ele>
      </trkpt>
      <trkpt lat="48.26772" lon="3.80656">
        <ele>108.77</ele>
      </trkpt>
      <trkpt lat="48.26815" lon="3.80711">
        <ele>64.62</ele>
      </trkpt>
      <trkpt lat="48.26852" lon="3.80796">
        <ele>132</ele>
      </trkpt>
      <trkpt lat="48.26852" lon="3.80796">
        <ele>132</ele>
      </trkpt>
    </trkseg>
  </trk>
</gpx>